Time;durP1;ratioP1;P1;durP2;ratioP2;P2;SDS_P1;SDS_P2;PMS_P1;PMS_P2;Temp;Humidity;BMP_temperature;BMP_pressure;BME280_temperature;BME280_humidity;BME280_pressure;Samples;Min_cycle;Max_cycle;Signal;HPM_P1;HPM_P2
2021/12/25 00:02:08;;;;;;;22.58;19.33;;;11.50;99.90;;;;;;4973436;28;20235;-74
2021/12/25 00:04:35;;;;;;;22.33;18.17;;;11.50;99.90;;;;;;4957791;28;20171;-74
2021/12/25 00:07:01;;;;;;;20.95;18.23;;;11.50;99.90;;;;;;4975105;28;20175;-74
2021/12/25 00:09:27;;;;;;;22.67;17.35;;;11.50;99.90;;;;;;4974299;28;20845;-74
2021/12/25 00:11:53;;;;;;;22.07;16.10;;;11.50;99.90;;;;;;4990942;28;20200;-74
2021/12/25 00:14:21;;;;;;;19.98;15.40;;;11.50;99.90;;;;;;4975041;28;20683;-74
2021/12/25 00:16:47;;;;;;;15.18;12.80;;;11.50;99.90;;;;;;4973208;28;20223;-74
2021/12/25 00:19:12;;;;;;;15.63;12.17;;;11.40;99.90;;;;;;4975307;28;20188;-74
2021/12/25 00:21:38;;;;;;;12.07;10.80;;;11.40;99.90;;;;;;4974699;28;20218;-74
2021/12/25 00:24:04;;;;;;;11.40;9.30;;;11.40;99.90;;;;;;4973618;28;20495;-74
2021/12/25 00:29:16;;;;;;;10.85;8.68;;;11.30;99.90;;;;;;4957921;28;20172;-74
2021/12/25 00:31:51;;;;;;;11.43;8.57;;;11.20;99.90;;;;;;4989694;28;20319;-74
2021/12/25 00:34:17;;;;;;;8.38;7.00;;;11.20;99.90;;;;;;4973566;28;20197;-75
2021/12/25 00:36:43;;;;;;;7.70;6.50;;;11.20;99.90;;;;;;4974512;28;20212;-74
2021/12/25 00:39:09;;;;;;;9.02;8.13;;;11.10;99.90;;;;;;4974601;28;20936;-74
2021/12/25 00:41:35;;;;;;;9.93;6.77;;;11.10;99.90;;;;;;4974145;28;20290;-75
2021/12/25 00:44:01;;;;;;;7.83;6.77;;;11.10;99.90;;;;;;4974538;28;20178;-74
2021/12/25 00:46:27;;;;;;;7.10;5.90;;;11.00;99.90;;;;;;4974229;28;20199;-74
2021/12/25 00:48:52;;;;;;;7.10;5.73;;;11.00;99.90;;;;;;4975199;28;20172;-74
2021/12/25 00:51:19;;;;;;;6.70;5.70;;;11.00;99.90;;;;;;4973117;28;20600;-73
2021/12/25 00:53:45;;;;;;;7.23;6.10;;;10.90;99.90;;;;;;4973050;28;20167;-73
2021/12/25 00:56:11;;;;;;;7.23;6.07;;;10.90;99.90;;;;;;4989083;28;20587;-73
2021/12/25 00:58:36;;;;;;;9.27;6.30;;;10.90;99.90;;;;;;4956986;28;20937;-73
2021/12/25 01:01:02;;;;;;;6.30;5.70;;;10.90;99.90;;;;;;4972925;28;20196;-73
2021/12/25 01:03:28;;;;;;;5.30;4.70;;;10.90;99.90;;;;;;4974133;28;20306;-73
2021/12/25 01:05:54;;;;;;;4.68;3.33;;;10.90;99.90;;;;;;4972990;28;20182;-73
2021/12/25 01:08:20;;;;;;;4.43;3.55;;;10.80;99.90;;;;;;4973000;28;20226;-73
2021/12/25 01:10:48;;;;;;;5.88;4.03;;;10.80;99.90;;;;;;4973061;28;20204;-73
2021/12/25 01:13:28;;;;;;;4.13;3.73;;;10.80;99.90;;;;;;4988943;28;20206;-73
2021/12/25 01:27:51;;;;;;;3.40;3.00;;;10.60;99.90;;;;;;4972569;28;20653;-73
2021/12/25 01:33:25;;;;;;;4.63;3.13;;;10.50;99.90;;;;;;4956409;28;20186;-73
2021/12/25 01:42:04;;;;;;;3.53;3.22;;;10.50;99.90;;;;;;4972223;28;20230;-73
2021/12/25 01:47:53;;;;;;;5.70;3.83;;;10.40;99.90;;;;;;4973943;28;20171;-73
2021/12/25 01:50:23;;;;;;;4.38;3.30;;;10.40;99.90;;;;;;4972312;28;20171;-73
2021/12/25 01:52:49;;;;;;;4.70;2.83;;;10.40;99.90;;;;;;4972059;28;20171;-73
2021/12/25 01:55:26;;;;;;;2.70;2.35;;;10.40;99.90;;;;;;4988355;28;20172;-73
2021/12/25 01:57:56;;;;;;;2.92;2.63;;;10.40;99.90;;;;;;4973264;28;20578;-73
2021/12/25 02:00:28;;;;;;;2.78;2.22;;;10.40;99.90;;;;;;4956247;28;20643;-73
2021/12/25 02:02:54;;;;;;;2.60;2.40;;;10.40;99.90;;;;;;4971017;28;20207;-73
2021/12/25 02:05:21;;;;;;;3.45;2.83;;;10.40;99.90;;;;;;4971894;28;20524;-73
2021/12/25 02:07:47;;;;;;;2.83;2.45;;;10.40;99.90;;;;;;4973174;28;20187;-73
2021/12/25 02:10:14;;;;;;;2.72;2.53;;;10.40;99.90;;;;;;4955733;28;20652;-73
2021/12/25 02:12:42;;;;;;;3.83;2.60;;;10.40;99.90;;;;;;4987712;28;20194;-74
2021/12/25 02:15:15;;;;;;;3.53;2.60;;;10.40;99.90;;;;;;4988263;28;20171;-73
2021/12/25 02:17:59;;;;;;;2.05;1.77;;;10.40;99.90;;;;;;4988041;28;20179;-74
2021/12/25 02:20:55;;;;;;;2.55;1.90;;;10.40;99.90;;;;;;4964681;28;20306;-73
2021/12/25 02:23:24;;;;;;;2.75;2.28;;;10.40;99.90;;;;;;4971700;28;20171;-73
2021/12/25 02:25:52;;;;;;;2.38;2.05;;;10.40;99.90;;;;;;4971599;28;20207;-73
2021/12/25 02:28:19;;;;;;;2.15;1.85;;;10.40;99.90;;;;;;4971527;28;20644;-73
2021/12/25 02:30:47;;;;;;;2.50;2.23;;;10.30;99.90;;;;;;4971869;28;20195;-73
2021/12/25 02:33:16;;;;;;;1.90;1.70;;;10.30;99.90;;;;;;4972759;28;20596;-73
2021/12/25 02:35:44;;;;;;;2.05;1.52;;;10.30;99.90;;;;;;4971669;28;20178;-74
2021/12/25 02:38:11;;;;;;;2.83;1.50;;;10.30;99.90;;;;;;4971492;28;20234;-73
2021/12/25 02:40:37;;;;;;;1.90;1.65;;;10.30;99.90;;;;;;4987433;28;20192;-73
2021/12/25 02:43:03;;;;;;;1.80;1.20;;;10.30;99.90;;;;;;4971386;28;20206;-73
2021/12/25 02:45:29;;;;;;;1.95;1.50;;;10.30;99.90;;;;;;4972432;28;20167;-73
2021/12/25 02:47:56;;;;;;;1.70;1.50;;;10.20;99.90;;;;;;4971514;28;20266;-73
2021/12/25 02:50:27;;;;;;;1.75;1.50;;;10.20;99.90;;;;;;4971106;28;20182;-73
2021/12/25 02:52:54;;;;;;;2.15;1.75;;;10.20;99.90;;;;;;4971275;28;20180;-73
2021/12/25 02:55:21;;;;;;;1.83;1.42;;;10.20;99.90;;;;;;4970838;28;20238;-73
2021/12/25 02:57:51;;;;;;;1.53;1.10;;;10.20;99.90;;;;;;4971451;28;20179;-73
2021/12/25 03:00:20;;;;;;;2.00;1.75;;;10.20;99.90;;;;;;4971141;28;20660;-73
2021/12/25 03:02:46;;;;;;;1.65;1.33;;;10.10;99.90;;;;;;4972595;28;20559;-73
2021/12/25 03:05:13;;;;;;;1.50;1.00;;;10.20;99.90;;;;;;4955468;28;20172;-73
2021/12/25 03:07:39;;;;;;;1.70;1.60;;;10.10;99.90;;;;;;4970963;28;20159;-73
2021/12/25 03:10:07;;;;;;;1.97;1.80;;;10.10;99.90;;;;;;4971417;28;20175;-73
2021/12/25 03:12:45;;;;;;;1.80;1.20;;;10.10;99.90;;;;;;4971197;28;20630;-73
2021/12/25 03:15:15;;;;;;;1.55;1.30;;;10.00;99.90;;;;;;4975119;28;20183;-72
2021/12/25 03:17:41;;;;;;;1.40;1.10;;;10.00;99.90;;;;;;4974964;28;20172;-73
2021/12/25 03:20:11;;;;;;;1.63;1.33;;;10.00;99.90;;;;;;4974800;28;20198;-74
2021/12/25 03:22:39;;;;;;;1.98;1.40;;;10.00;99.90;;;;;;4958746;28;20285;-73
2021/12/25 03:25:08;;;;;;;2.03;1.40;;;10.00;99.90;;;;;;4958888;28;20171;-73
2021/12/25 03:27:36;;;;;;;1.60;1.20;;;9.90;99.90;;;;;;4974678;28;20172;-72
2021/12/25 03:30:03;;;;;;;1.50;1.30;;;9.90;99.90;;;;;;4974867;28;20168;-73
2021/12/25 03:32:29;;;;;;;1.90;1.42;;;9.90;99.90;;;;;;4974855;28;20783;-73
2021/12/25 03:34:55;;;;;;;2.13;1.30;;;9.90;99.90;;;;;;4974980;28;20271;-73
2021/12/25 03:37:21;;;;;;;1.60;1.20;;;9.80;99.90;;;;;;4975887;28;20179;-72
2021/12/25 03:39:46;;;;;;;1.90;1.70;;;9.80;99.90;;;;;;4975967;28;20178;-72
2021/12/25 03:42:12;;;;;;;1.98;1.30;;;9.70;99.90;;;;;;4976081;28;20214;-72
2021/12/25 03:44:38;;;;;;;2.23;1.43;;;9.70;99.90;;;;;;4975686;28;20251;-72
2021/12/25 03:47:14;;;;;;;3.10;2.10;;;9.70;99.90;;;;;;4974598;28;20168;-73
2021/12/25 03:57:57;;;;;;;1.80;1.40;;;9.50;99.90;;;;;;4974653;28;20179;-73
2021/12/25 04:00:29;;;;;;;1.60;1.50;;;9.50;99.90;;;;;;4974226;28;20175;-72
2021/12/25 04:02:59;;;;;;;1.50;1.30;;;9.50;99.90;;;;;;4974365;28;20290;-72
2021/12/25 04:05:37;;;;;;;1.58;1.30;;;9.50;99.90;;;;;;4957948;28;20176;-73
2021/12/25 04:08:06;;;;;;;1.92;1.52;;;9.40;99.90;;;;;;4974363;28;20212;-73
2021/12/25 04:10:39;;;;;;;2.15;1.55;;;9.40;99.90;;;;;;4973974;28;20282;-73
2021/12/25 04:13:10;;;;;;;1.80;1.60;;;9.40;99.90;;;;;;4958307;28;20180;-73
2021/12/25 04:15:36;;;;;;;2.10;1.90;;;9.30;99.90;;;;;;4973730;28;20172;-73
2021/12/25 04:18:03;;;;;;;1.90;1.60;;;9.30;99.90;;;;;;4957895;28;20176;-73
2021/12/25 04:20:30;;;;;;;2.35;2.15;;;9.20;99.90;;;;;;4973559;28;20254;-73
2021/12/25 04:23:02;;;;;;;2.53;2.25;;;9.20;99.90;;;;;;4958050;28;20203;-73
2021/12/25 04:25:31;;;;;;;2.85;2.42;;;9.10;99.90;;;;;;4974264;28;20254;-73
2021/12/25 04:28:04;;;;;;;3.30;2.00;;;9.10;99.90;;;;;;4973904;28;20182;-73
2021/12/25 05:06:38;;;;;;;3.28;2.90;;;8.60;99.90;;;;;;4973537;28;20187;-74
2021/12/25 05:09:04;;;;;;;3.30;2.93;;;8.60;99.90;;;;;;4974037;28;20180;-74
2021/12/25 05:11:31;;;;;;;3.63;3.30;;;8.60;99.90;;;;;;4957149;28;20685;-74
2021/12/25 05:13:57;;;;;;;3.60;3.25;;;8.50;99.90;;;;;;4957024;28;20168;-73
2021/12/25 05:16:29;;;;;;;3.90;3.45;;;8.50;99.90;;;;;;4957644;28;20537;-73
2021/12/25 05:18:56;;;;;;;4.20;3.75;;;8.50;99.90;;;;;;4973087;28;20544;-73
2021/12/25 05:21:22;;;;;;;3.50;3.20;;;8.40;99.90;;;;;;4972452;28;20203;-73
2021/12/25 05:23:48;;;;;;;4.07;3.40;;;8.40;99.90;;;;;;4956505;28;21185;-73
2021/12/25 05:26:16;;;;;;;6.03;4.47;;;8.40;99.90;;;;;;4988603;28;20246;-73
2021/12/25 05:28:45;;;;;;;5.60;4.80;;;8.30;99.90;;;;;;4973015;28;20172;-73
2021/12/25 05:31:15;;;;;;;5.35;4.35;;;8.30;99.90;;;;;;4988704;28;20691;-73
2021/12/25 05:34:04;;;;;;;6.07;5.10;;;8.20;99.90;;;;;;4974196;28;20270;-73
2021/12/25 05:36:44;;;;;;;5.20;4.70;;;8.20;99.90;;;;;;4974133;28;20175;-73
2021/12/25 05:39:28;;;;;;;4.97;4.40;;;8.20;99.90;;;;;;4973843;28;20172;-73
2021/12/25 05:41:54;;;;;;;7.90;6.27;;;8.20;99.90;;;;;;4972280;28;20219;-73
2021/12/25 05:44:23;;;;;;;5.63;5.03;;;8.10;99.90;;;;;;4956197;28;20659;-73
2021/12/25 05:47:06;;;;;;;5.45;4.72;;;8.10;99.90;;;;;;4973197;28;20176;-73
2021/12/25 05:49:35;;;;;;;7.90;6.53;;;8.10;99.90;;;;;;4967337;28;20536;-73
2021/12/25 05:52:08;;;;;;;7.30;6.50;;;8.00;99.90;;;;;;4952915;29;20282;-72
2021/12/25 05:54:46;;;;;;;6.97;6.13;;;8.00;99.90;;;;;;4978606;28;20194;-73
2021/12/25 05:57:14;;;;;;;6.65;5.85;;;8.00;99.90;;;;;;4971442;28;20179;-73
2021/12/25 05:59:59;;;;;;;7.22;6.50;;;8.00;99.90;;;;;;4966903;28;20168;-73
2021/12/25 06:02:44;;;;;;;9.07;7.20;;;8.00;99.90;;;;;;4972459;28;20629;-73
2021/12/25 06:05:17;;;;;;;7.15;6.43;;;8.00;99.90;;;;;;4973043;28;20199;-72
2021/12/25 06:07:43;;;;;;;9.32;6.30;;;7.90;99.90;;;;;;4972010;28;20195;-73
2021/12/25 06:10:10;;;;;;;6.00;5.40;;;7.90;99.90;;;;;;4972515;28;20170;-72
2021/12/25 06:12:42;;;;;;;5.50;5.00;;;7.80;99.90;;;;;;4956098;28;20183;-73
2021/12/25 06:15:10;;;;;;;6.05;5.47;;;7.80;99.90;;;;;;4972378;28;20179;-73
2021/12/25 06:17:55;;;;;;;5.10;4.60;;;7.80;99.90;;;;;;4972420;28;20202;-73
2021/12/25 06:20:28;;;;;;;5.78;5.22;;;7.70;99.90;;;;;;4971786;28;20309;-73
2021/12/25 06:23:10;;;;;;;6.30;5.70;;;7.70;99.90;;;;;;4958032;28;20203;-73
2021/12/25 06:26:05;;;;;;;7.72;5.47;;;7.70;99.90;;;;;;4936964;28;20271;-73
2021/12/25 06:29:04;;;;;;;6.25;5.65;;;7.60;99.90;;;;;;4961979;28;20632;-73
2021/12/25 06:31:40;;;;;;;6.00;5.13;;;7.60;99.90;;;;;;4971806;28;20199;-73
2021/12/25 06:34:29;;;;;;;5.78;5.28;;;7.60;99.90;;;;;;4972418;28;20214;-73
2021/12/25 06:37:10;;;;;;;5.45;4.93;;;7.60;99.90;;;;;;4972741;28;20167;-73
2021/12/25 06:40:05;;;;;;;5.88;5.28;;;7.60;99.90;;;;;;4971558;28;20179;-73
2021/12/25 06:42:35;;;;;;;6.10;5.50;;;7.60;99.90;;;;;;4971605;28;20286;-73
2021/12/25 06:45:02;;;;;;;5.45;4.57;;;7.50;99.90;;;;;;4955408;28;20222;-73
2021/12/25 06:47:27;;;;;;;5.97;4.97;;;7.50;99.90;;;;;;4973277;28;20175;-73
2021/12/25 06:49:55;;;;;;;6.55;4.43;;;7.50;99.90;;;;;;4994020;28;20178;-73
2021/12/25 06:52:41;;;;;;;6.30;5.70;;;7.50;99.90;;;;;;4979121;28;20175;-73
2021/12/25 06:55:25;;;;;;;3.92;3.55;;;7.40;99.90;;;;;;4978691;28;20191;-73
2021/12/25 06:58:04;;;;;;;5.47;4.90;;;7.40;99.90;;;;;;4994432;28;20175;-73
2021/12/25 07:00:30;;;;;;;5.53;5.03;;;7.40;99.90;;;;;;4977530;28;20656;-73
2021/12/25 07:02:57;;;;;;;5.43;4.90;;;7.40;99.90;;;;;;4977789;28;20195;-74
2021/12/25 07:05:50;;;;;;;4.78;4.35;;;7.40;99.90;;;;;;4955647;28;20215;-73
2021/12/25 07:08:42;;;;;;;5.38;4.70;;;7.40;99.90;;;;;;4977340;28;20215;-72
2021/12/25 07:11:20;;;;;;;4.65;3.88;;;7.30;99.90;;;;;;4993969;28;20192;-72
2021/12/25 07:14:02;;;;;;;5.22;4.70;;;7.30;99.90;;;;;;4994112;28;20171;-73
2021/12/25 07:16:46;;;;;;;4.18;3.78;;;7.30;99.90;;;;;;4978345;28;20311;-72
2021/12/25 07:19:25;;;;;;;6.85;6.15;;;7.30;99.90;;;;;;4978037;28;20175;-72
2021/12/25 07:22:10;;;;;;;5.10;4.60;;;7.20;99.90;;;;;;4978882;28;20207;-73
2021/12/25 07:24:54;;;;;;;4.05;3.65;;;7.20;99.90;;;;;;4961818;28;20935;-73
2021/12/25 07:27:40;;;;;;;3.80;3.50;;;7.20;99.90;;;;;;4938087;28;20179;-73
2021/12/25 07:30:07;;;;;;;4.43;4.03;;;7.30;99.90;;;;;;4978760;28;20167;-73
2021/12/25 07:32:33;;;;;;;4.28;3.88;;;7.30;99.90;;;;;;4993658;28;20199;-73
2021/12/25 07:34:58;;;;;;;5.70;5.20;;;7.40;99.90;;;;;;4961435;28;20179;-73
2021/12/25 07:37:24;;;;;;;4.70;4.20;;;7.40;99.90;;;;;;4978677;28;20577;-72
2021/12/25 07:39:50;;;;;;;4.32;3.83;;;7.40;99.90;;;;;;4961443;28;20175;-72
2021/12/25 07:42:16;;;;;;;4.40;4.00;;;7.40;99.90;;;;;;4978605;28;20286;-72
2021/12/25 07:45:04;;;;;;;4.70;4.30;;;7.40;99.90;;;;;;4977423;28;20646;-72
2021/12/25 07:47:32;;;;;;;4.10;3.70;;;7.40;99.90;;;;;;4972750;28;20243;-72
2021/12/25 07:49:59;;;;;;;3.67;3.38;;;7.40;99.90;;;;;;4975979;28;20263;-72
2021/12/25 07:52:26;;;;;;;4.65;3.47;;;7.40;99.90;;;;;;4959275;28;20673;-72
2021/12/25 07:54:52;;;;;;;4.55;4.15;;;7.40;99.90;;;;;;4925776;29;20199;-72
2021/12/25 07:57:18;;;;;;;4.47;4.07;;;7.40;99.90;;;;;;4941599;29;20279;-73
2021/12/25 07:59:44;;;;;;;3.97;3.67;;;7.40;99.90;;;;;;4971621;28;20179;-72
2021/12/25 08:02:11;;;;;;;4.33;4.03;;;7.40;99.90;;;;;;4968372;28;20203;-73
2021/12/25 08:04:37;;;;;;;4.65;4.25;;;7.40;99.90;;;;;;4974094;28;20629;-73
2021/12/25 08:07:03;;;;;;;3.92;3.63;;;7.50;99.90;;;;;;4974636;28;20176;-73
2021/12/25 08:09:30;;;;;;;3.95;3.55;;;7.40;99.90;;;;;;4973632;28;20223;-74
2021/12/25 08:12:01;;;;;;;4.97;4.47;;;7.40;99.90;;;;;;4975251;28;20211;-73
2021/12/25 08:14:27;;;;;;;4.32;3.92;;;7.40;99.90;;;;;;4975026;28;20175;-73
2021/12/25 08:16:58;;;;;;;3.85;3.28;;;7.40;99.90;;;;;;4974023;28;20270;-74
2021/12/25 08:19:32;;;;;;;4.50;4.10;;;7.40;99.90;;;;;;4990038;28;20538;-74
2021/12/25 08:22:30;;;;;;;3.63;3.17;;;7.40;99.90;;;;;;4952399;28;20219;-73
2021/12/25 08:25:15;;;;;;;3.83;3.53;;;7.30;99.90;;;;;;4975374;28;20636;-74
2021/12/25 08:28:19;;;;;;;3.33;2.97;;;7.40;99.90;;;;;;4973558;28;20183;-73
2021/12/25 08:31:08;;;;;;;3.08;2.88;;;7.40;99.90;;;;;;4955732;28;20235;-74
2021/12/25 08:34:12;;;;;;;3.28;2.97;;;7.40;99.90;;;;;;4954389;28;20179;-74
2021/12/25 08:36:56;;;;;;;2.20;2.00;;;7.40;99.90;;;;;;4955505;29;20540;-74
2021/12/25 08:39:22;;;;;;;2.20;2.00;;;7.40;99.90;;;;;;4954131;29;20176;-74
2021/12/25 08:41:47;;;;;;;2.50;2.30;;;7.40;99.90;;;;;;4955369;29;20201;-73
2021/12/25 08:44:33;;;;;;;2.20;1.70;;;7.40;99.90;;;;;;4955281;29;20266;-74
2021/12/25 08:46:59;;;;;;;2.63;2.42;;;7.40;99.90;;;;;;4970092;28;20533;-74
2021/12/25 08:49:31;;;;;;;2.90;2.25;;;7.30;99.90;;;;;;4955210;28;20191;-74
2021/12/25 08:52:00;;;;;;;2.40;2.20;;;7.30;99.90;;;;;;4955026;28;20653;-74
2021/12/25 08:54:29;;;;;;;2.42;2.22;;;7.20;99.90;;;;;;4953886;29;20557;-73
2021/12/25 08:56:55;;;;;;;2.30;2.10;;;7.20;99.90;;;;;;4977820;28;20175;-74
2021/12/25 08:59:21;;;;;;;2.23;2.03;;;7.20;99.90;;;;;;4974379;28;20575;-73
2021/12/25 09:01:47;;;;;;;2.50;2.30;;;7.10;99.90;;;;;;4974240;28;20634;-74
2021/12/25 09:04:13;;;;;;;2.33;2.13;;;7.10;99.90;;;;;;4974330;28;20563;-73
2021/12/25 09:06:39;;;;;;;2.00;1.70;;;7.10;99.90;;;;;;4974098;28;20744;-74
2021/12/25 09:09:08;;;;;;;2.57;1.67;;;7.10;99.90;;;;;;4973237;28;20203;-73
2021/12/25 09:11:36;;;;;;;2.10;1.90;;;7.00;99.90;;;;;;4973906;28;20603;-74
2021/12/25 09:14:02;;;;;;;2.10;1.90;;;7.00;99.90;;;;;;4989096;28;20192;-73
2021/12/25 09:16:28;;;;;;;2.55;2.20;;;6.90;99.90;;;;;;4988767;28;20178;-74
2021/12/25 09:18:53;;;;;;;1.90;1.60;;;6.90;99.90;;;;;;4972952;28;20536;-74
2021/12/25 09:21:19;;;;;;;1.70;1.60;;;6.90;99.90;;;;;;4988406;28;20215;-73
2021/12/25 09:23:45;;;;;;;1.90;1.57;;;6.80;99.90;;;;;;4973907;28;20196;-74
2021/12/25 09:26:10;;;;;;;1.93;1.73;;;6.80;99.90;;;;;;4988546;28;20634;-73
2021/12/25 09:28:36;;;;;;;2.00;1.70;;;6.70;99.90;;;;;;4972798;28;20164;-74
2021/12/25 09:31:03;;;;;;;1.77;1.40;;;6.70;99.90;;;;;;4973932;28;20263;-74
2021/12/25 09:33:30;;;;;;;1.67;1.20;;;6.70;99.90;;;;;;4988716;28;20602;-75
2021/12/25 09:35:56;;;;;;;2.60;1.50;;;6.70;99.90;;;;;;4971971;28;20184;-75
2021/12/25 09:38:23;;;;;;;2.25;1.33;;;6.70;99.90;;;;;;4973573;28;20168;-76
2021/12/25 09:40:49;;;;;;;2.63;2.33;;;6.70;99.90;;;;;;4973557;28;20211;-74
2021/12/25 09:43:18;;;;;;;1.70;1.23;;;6.60;99.90;;;;;;4973774;28;20607;-76
2021/12/25 09:45:44;;;;;;;1.50;1.25;;;6.70;99.90;;;;;;4974077;28;20658;-75
2021/12/25 09:48:10;;;;;;;1.58;1.05;;;6.60;99.90;;;;;;4974483;28;20199;-75
2021/12/25 09:50:36;;;;;;;1.88;1.55;;;6.60;99.90;;;;;;4973541;28;20215;-75
2021/12/25 09:53:08;;;;;;;1.63;1.30;;;6.60;99.90;;;;;;4972036;28;20176;-76
2021/12/25 09:55:34;;;;;;;1.80;1.30;;;6.60;99.90;;;;;;4988472;28;20176;-74
2021/12/25 09:58:00;;;;;;;1.40;1.05;;;6.60;99.90;;;;;;4988381;28;20542;-75
2021/12/25 10:00:27;;;;;;;1.88;1.30;;;6.60;99.90;;;;;;4973382;28;20183;-74
2021/12/25 10:02:55;;;;;;;1.50;1.20;;;6.70;99.90;;;;;;4973428;28;20242;-74
2021/12/25 10:05:34;;;;;;;1.50;1.20;;;6.70;99.90;;;;;;4973241;28;20199;-75
2021/12/25 10:08:02;;;;;;;1.40;1.00;;;6.70;99.90;;;;;;4973427;28;20176;-75
2021/12/25 10:10:49;;;;;;;1.65;1.30;;;6.80;99.90;;;;;;4988089;28;20207;-75
2021/12/25 10:13:26;;;;;;;2.88;1.08;;;6.70;99.90;;;;;;4973043;28;20183;-75
2021/12/25 10:15:55;;;;;;;1.30;1.00;;;6.70;99.90;;;;;;4972354;28;20246;-75
2021/12/25 10:18:35;;;;;;;1.58;0.80;;;6.80;99.90;;;;;;4971583;28;20379;-75
2021/12/25 10:21:24;;;;;;;1.40;0.90;;;6.80;99.90;;;;;;4972596;28;20330;-75
2021/12/25 10:24:12;;;;;;;1.40;1.20;;;6.80;99.90;;;;;;4972129;28;20179;-75
2021/12/25 10:26:41;;;;;;;1.40;0.95;;;6.80;99.90;;;;;;4987308;28;20211;-75
2021/12/25 10:29:21;;;;;;;1.20;0.80;;;6.80;99.90;;;;;;4971764;28;20268;-75
2021/12/25 10:31:47;;;;;;;1.30;1.05;;;6.90;99.90;;;;;;4972559;28;20668;-75
2021/12/25 10:34:22;;;;;;;1.25;0.80;;;6.90;99.90;;;;;;4974719;28;20167;-76
2021/12/25 10:36:49;;;;;;;1.40;0.80;;;6.90;99.90;;;;;;4973590;28;20163;-76
2021/12/25 10:39:27;;;;;;;2.17;1.08;;;6.80;99.90;;;;;;4973297;28;20546;-76
2021/12/25 10:41:59;;;;;;;1.25;0.80;;;6.80;99.90;;;;;;4972347;28;20589;-76
2021/12/25 10:44:29;;;;;;;1.35;0.90;;;6.80;99.90;;;;;;4972485;28;20878;-76
2021/12/25 10:47:12;;;;;;;2.50;0.90;;;6.80;99.90;;;;;;4971110;28;20584;-78
2021/12/25 10:49:43;;;;;;;1.40;0.80;;;6.90;99.90;;;;;;4976478;28;20174;-77
2021/12/25 10:52:17;;;;;;;1.25;0.80;;;6.90;99.90;;;;;;4973059;28;20199;-78
2021/12/25 10:54:49;;;;;;;1.20;0.80;;;7.00;99.90;;;;;;4972768;28;20183;-77
2021/12/25 10:57:39;;;;;;;1.20;0.63;;;7.00;99.90;;;;;;4972150;28;20183;-76
2021/12/25 11:00:10;;;;;;;1.13;0.68;;;7.00;99.90;;;;;;4988344;28;20669;-78
2021/12/25 11:02:39;;;;;;;1.02;0.60;;;7.10;99.90;;;;;;4971211;28;20235;-76
2021/12/25 11:05:22;;;;;;;1.08;0.65;;;7.00;99.90;;;;;;4988646;28;20168;-76
2021/12/25 11:08:05;;;;;;;1.30;0.70;;;7.00;99.90;;;;;;4962396;28;20186;-76
2021/12/25 11:10:54;;;;;;;1.30;0.80;;;7.00;99.90;;;;;;4962186;28;20211;-77
2021/12/25 11:13:36;;;;;;;1.10;0.70;;;7.10;99.90;;;;;;4954586;28;20171;-76
2021/12/25 11:16:27;;;;;;;1.20;0.80;;;7.00;99.90;;;;;;4963108;28;20180;-76
2021/12/25 11:19:05;;;;;;;1.35;0.70;;;7.00;99.90;;;;;;4963230;28;20655;-77
2021/12/25 11:21:54;;;;;;;1.27;0.70;;;7.00;99.90;;;;;;4967041;28;20208;-77
2021/12/25 11:24:24;;;;;;;1.10;0.63;;;6.90;99.90;;;;;;4972171;28;20175;-75
2021/12/25 11:26:55;;;;;;;1.08;0.60;;;7.00;99.90;;;;;;4968171;28;20168;-76
2021/12/25 11:29:24;;;;;;;1.45;0.57;;;7.00;99.90;;;;;;4972308;28;20203;-75
2021/12/25 11:31:53;;;;;;;1.10;0.60;;;7.00;99.90;;;;;;4988038;28;20220;-76
2021/12/25 11:34:21;;;;;;;1.30;0.70;;;7.00;99.90;;;;;;4965575;28;20184;-76
2021/12/25 11:36:50;;;;;;;1.00;0.60;;;7.10;99.90;;;;;;4962302;28;20184;-76
2021/12/25 11:39:19;;;;;;;1.10;0.60;;;7.00;99.90;;;;;;4984573;28;20176;-75
2021/12/25 11:41:46;;;;;;;1.02;0.57;;;7.00;99.90;;;;;;4977164;28;20204;-76
2021/12/25 11:44:52;;;;;;;1.10;0.60;;;7.00;99.90;;;;;;4976529;28;20172;-77
2021/12/25 11:47:37;;;;;;;1.10;0.60;;;7.00;99.90;;;;;;4915263;29;20197;-76
2021/12/25 11:50:24;;;;;;;1.10;0.60;;;6.90;99.90;;;;;;4970725;28;20618;-75
2021/12/25 11:54:08;;;;;;;1.00;0.60;;;6.90;99.90;;;;;;4974818;28;20183;-74
2021/12/25 11:58:42;;;;;;;1.20;0.60;;;7.00;99.90;;;;;;4974098;28;20218;-74
2021/12/25 12:01:17;;;;;;;1.10;0.70;;;7.10;99.90;;;;;;4972807;28;20302;-74
2021/12/25 12:03:47;;;;;;;1.20;0.60;;;7.10;99.90;;;;;;4973812;28;20629;-74
2021/12/25 12:06:13;;;;;;;1.20;0.80;;;7.00;99.90;;;;;;4973178;28;20644;-74
2021/12/25 12:08:55;;;;;;;1.30;0.60;;;7.10;99.90;;;;;;4975008;28;20182;-74
2021/12/25 12:11:42;;;;;;;1.17;0.70;;;7.00;99.90;;;;;;4973879;28;20203;-74
2021/12/25 12:14:23;;;;;;;1.20;0.70;;;7.00;99.90;;;;;;4975213;28;20262;-75
2021/12/25 12:17:30;;;;;;;1.20;0.70;;;7.00;99.90;;;;;;4974142;28;20179;-76
2021/12/25 12:20:00;;;;;;;1.10;0.65;;;6.90;99.90;;;;;;4973646;28;20183;-75
2021/12/25 12:25:23;;;;;;;2.05;0.88;;;6.80;99.90;;;;;;4975087;28;20207;-76
2021/12/25 12:27:59;;;;;;;1.30;0.70;;;6.80;99.90;;;;;;4974600;28;20180;-75
2021/12/25 12:30:31;;;;;;;1.23;0.65;;;6.80;99.90;;;;;;4974749;28;20179;-76
2021/12/25 12:32:58;;;;;;;1.38;0.80;;;6.80;99.90;;;;;;4974311;28;20793;-76
2021/12/25 12:35:38;;;;;;;1.40;0.70;;;6.70;99.90;;;;;;4973578;28;20175;-76
2021/12/25 12:38:23;;;;;;;1.30;0.80;;;6.70;99.90;;;;;;4980868;28;20202;-76
2021/12/25 12:41:13;;;;;;;1.30;0.75;;;6.70;99.90;;;;;;4973752;28;20583;-75
2021/12/25 12:44:04;;;;;;;1.25;0.70;;;6.60;99.90;;;;;;4979078;28;20187;-76
2021/12/25 12:46:48;;;;;;;1.42;0.80;;;6.60;99.90;;;;;;4984646;28;20682;-75
2021/12/25 12:49:18;;;;;;;1.35;0.77;;;6.60;99.90;;;;;;4979052;28;20233;-75
2021/12/25 12:51:45;;;;;;;1.30;0.70;;;6.60;99.90;;;;;;4978548;28;20203;-75
2021/12/25 12:54:42;;;;;;;1.67;0.85;;;6.50;99.90;;;;;;4957694;28;20184;-75
2021/12/25 12:57:08;;;;;;;1.23;0.80;;;6.50;99.90;;;;;;4974918;28;20270;-75
2021/12/25 12:59:45;;;;;;;1.30;0.80;;;6.50;99.90;;;;;;4973968;28;20183;-75
2021/12/25 13:02:12;;;;;;;1.35;0.93;;;6.50;99.90;;;;;;4975774;28;20215;-75
2021/12/25 13:04:59;;;;;;;1.35;0.82;;;6.50;99.90;;;;;;4972398;28;20179;-75
2021/12/25 13:07:28;;;;;;;1.20;0.60;;;6.50;99.90;;;;;;4980359;28;20163;-75
2021/12/25 13:10:30;;;;;;;1.65;0.90;;;6.60;99.90;;;;;;4973690;28;20182;-75
2021/12/25 13:13:47;;;;;;;1.38;0.80;;;6.50;99.90;;;;;;4982121;28;20183;-73
2021/12/25 13:16:15;;;;;;;1.60;0.80;;;6.60;99.90;;;;;;4974519;28;20203;-75
2021/12/25 13:18:51;;;;;;;1.20;0.90;;;6.50;99.90;;;;;;4972647;28;20176;-75
2021/12/25 13:21:22;;;;;;;1.20;0.70;;;6.40;99.90;;;;;;4975460;28;20282;-74
2021/12/25 13:23:55;;;;;;;2.00;0.80;;;6.40;99.90;;;;;;4972218;28;20174;-74
2021/12/25 13:26:32;;;;;;;2.55;1.15;;;6.40;99.90;;;;;;4974201;28;20250;-75
2021/12/25 13:29:00;;;;;;;1.73;1.25;;;6.30;99.90;;;;;;4977643;28;20210;-75
2021/12/25 13:31:29;;;;;;;1.60;1.00;;;6.30;99.90;;;;;;4972151;28;20627;-75
2021/12/25 13:34:01;;;;;;;1.60;1.00;;;6.30;99.90;;;;;;4989955;28;20232;-76
2021/12/25 13:36:31;;;;;;;1.50;0.80;;;6.20;99.90;;;;;;4986862;28;20179;-75
2021/12/25 13:39:02;;;;;;;2.20;1.10;;;6.20;99.90;;;;;;4971669;28;20180;-74
2021/12/25 13:41:34;;;;;;;1.42;0.82;;;6.20;99.90;;;;;;4972282;28;20199;-75
2021/12/25 13:44:20;;;;;;;1.40;0.70;;;6.20;99.90;;;;;;4972228;28;20222;-75
2021/12/25 13:46:52;;;;;;;1.98;0.73;;;6.10;99.90;;;;;;4971667;28;20168;-75
2021/12/25 13:49:32;;;;;;;1.20;0.77;;;6.10;99.90;;;;;;4988734;28;20187;-75
2021/12/25 13:52:02;;;;;;;1.42;0.80;;;6.10;99.90;;;;;;4990015;28;20195;-75
2021/12/25 13:54:29;;;;;;;2.13;0.80;;;6.20;99.90;;;;;;4971631;28;20561;-75
2021/12/25 13:56:56;;;;;;;1.30;0.90;;;6.20;99.90;;;;;;4971847;28;20616;-75
2021/12/25 13:59:24;;;;;;;1.00;0.70;;;6.20;99.90;;;;;;4972623;28;20182;-75
2021/12/25 14:02:11;;;;;;;1.30;0.70;;;6.20;99.90;;;;;;4972978;28;20203;-75
2021/12/25 14:04:40;;;;;;;1.30;0.80;;;6.20;99.90;;;;;;4972659;28;20246;-74
2021/12/25 14:07:07;;;;;;;1.98;0.80;;;6.30;99.90;;;;;;4987926;28;20182;-76
2021/12/25 14:09:33;;;;;;;1.23;0.85;;;6.30;99.90;;;;;;4987754;28;20179;-74
2021/12/25 14:12:00;;;;;;;1.50;0.90;;;6.30;99.90;;;;;;4987683;28;20212;-74
2021/12/25 14:14:29;;;;;;;1.20;0.75;;;6.30;99.90;;;;;;4972551;28;20175;-75
2021/12/25 14:16:58;;;;;;;1.30;0.80;;;6.30;99.90;;;;;;4972456;28;20179;-74
2021/12/25 14:19:27;;;;;;;1.40;1.00;;;6.30;99.90;;;;;;4955261;28;20544;-75
2021/12/25 14:21:55;;;;;;;1.20;0.70;;;6.40;99.90;;;;;;4971622;28;20282;-75
2021/12/25 14:24:21;;;;;;;1.45;0.82;;;6.30;99.90;;;;;;4987310;28;20174;-75
2021/12/25 14:26:47;;;;;;;1.40;0.93;;;6.30;99.90;;;;;;4972012;28;20163;-76
2021/12/25 14:29:25;;;;;;;1.50;0.90;;;6.30;99.90;;;;;;4971590;28;20167;-75
2021/12/25 14:31:51;;;;;;;2.40;0.90;;;6.20;99.90;;;;;;4973002;28;20587;-75
2021/12/25 14:34:17;;;;;;;1.50;1.10;;;6.30;99.90;;;;;;4991129;28;20187;-74
2021/12/25 14:36:45;;;;;;;1.60;1.00;;;6.30;99.90;;;;;;4992790;28;20182;-75
2021/12/25 14:39:17;;;;;;;1.30;0.90;;;6.30;99.90;;;;;;4976343;28;20710;-75